createdAt,value
2018-09-03T00:02:19.059Z,15.8
2018-09-03T00:07:21.721Z,15.8
2018-09-03T00:12:24.006Z,15.8
2018-09-03T00:17:26.584Z,15.7
2018-09-03T00:27:31.510Z,15.9
2018-09-03T00:32:36.817Z,15.9
2018-09-03T00:37:36.465Z,16
2018-09-03T00:42:40.188Z,16.1
2018-09-03T00:47:41.207Z,16.1
2018-09-03T00:57:54.003Z,16.2
2018-09-03T01:02:48.600Z,16.1
2018-09-03T01:07:51.146Z,16.2
2018-09-03T01:12:53.477Z,16.2
2018-09-03T01:18:13.201Z,16.1
2018-09-03T01:23:32.528Z,16
2018-09-03T01:28:10.605Z,16.1
2018-09-03T01:33:09.650Z,16.1
2018-09-03T01:38:25.494Z,16.1
2018-09-03T01:43:58.776Z,16.2
2018-09-03T01:53:13.160Z,16.3
2018-09-03T01:58:29.857Z,16.3
2018-09-03T02:04:21.285Z,16.2
2018-09-03T02:13:28.690Z,16.2
2018-09-03T02:23:27.908Z,16.2
2018-09-03T02:28:37.203Z,16.2
2018-09-03T02:33:32.900Z,16.2
2018-09-03T02:38:35.260Z,16.2
2018-09-03T02:43:37.817Z,16.2
2018-09-03T02:48:53.003Z,16.2
2018-09-03T02:53:52.311Z,16.2
2018-09-03T02:58:45.100Z,16.3
2018-09-03T03:03:47.602Z,16.2
2018-09-03T03:08:50.010Z,16.2
2018-09-03T03:13:52.519Z,16.2
2018-09-03T03:18:54.926Z,16.2
2018-09-03T03:23:58.033Z,16.2
2018-09-03T03:28:59.836Z,16.2
2018-09-03T03:34:02.305Z,16.3
2018-09-03T03:39:09.013Z,16.2
2018-09-03T03:54:12.142Z,16.2
2018-09-03T03:59:14.588Z,16.2
2018-09-03T04:04:27.988Z,16.2
2018-09-03T04:10:28.153Z,16.3
2018-09-03T04:14:22.125Z,16.3
2018-09-03T04:19:26.341Z,16.2
2018-09-03T04:24:26.955Z,16
2018-09-03T04:29:29.368Z,15.9
2018-09-03T04:34:32.397Z,16
2018-09-03T04:39:34.272Z,15.9
2018-09-03T04:44:36.745Z,15.7
2018-09-03T04:49:39.340Z,15.6
2018-09-03T04:54:41.866Z,15.7
2018-09-03T04:59:44.087Z,15.9
2018-09-03T05:04:46.554Z,15.9
2018-09-03T05:09:49.008Z,15.9
2018-09-03T05:14:51.500Z,15.9
2018-09-03T05:19:59.328Z,16.1
2018-09-03T05:24:57.347Z,16.1
2018-09-03T05:29:58.853Z,16.2
2018-09-03T05:35:02.544Z,16.4
2018-09-03T05:40:04.444Z,16.5
2018-09-03T05:45:06.427Z,16.6
2018-09-03T05:50:08.945Z,16.5
2018-09-03T05:55:11.256Z,16.5
2018-09-03T06:00:13.709Z,16.4
2018-09-03T06:05:16.242Z,16.6
2018-09-03T06:10:18.533Z,16.7
2018-09-03T06:15:21.201Z,16.8
2018-09-03T06:20:23.532Z,17
2018-09-03T06:25:25.887Z,17.3
2018-09-03T06:30:28.549Z,17.4
2018-09-03T06:35:30.843Z,17.6
2018-09-03T06:40:33.275Z,17.8
2018-09-03T06:45:35.714Z,18
2018-09-03T06:50:38.185Z,18.1
2018-09-03T06:55:40.679Z,18.2
2018-09-03T07:05:45.715Z,18.2
2018-09-03T07:10:48.021Z,17.9
2018-09-03T07:15:50.620Z,17.7
2018-09-03T07:20:54.015Z,17.4
2018-09-03T07:25:55.410Z,17.2
2018-09-03T07:30:58.729Z,17.1
2018-09-03T07:36:00.369Z,17.1
2018-09-03T07:41:02.762Z,17
2018-09-03T07:46:05.244Z,17
2018-09-03T07:51:07.811Z,17
2018-09-03T07:56:10.209Z,16.9
2018-09-03T08:01:12.786Z,17
2018-09-03T08:06:15.122Z,16.9
2018-09-03T08:11:17.508Z,16.9
2018-09-03T08:16:59.300Z,17
2018-09-03T08:21:27.382Z,17.2
2018-09-03T08:26:27.156Z,17.3
2018-09-03T08:31:28.135Z,17.4
2018-09-03T08:36:29.827Z,17.5
2018-09-03T08:41:54.004Z,17.5
2018-09-03T08:51:37.410Z,17.3
2018-09-03T08:56:39.805Z,17.3
2018-09-03T09:01:47.769Z,17.1
2018-09-03T09:06:51.420Z,16.9
2018-09-03T09:16:49.561Z,17
2018-09-03T09:21:52.109Z,17.1
2018-09-03T09:26:54.635Z,17.3
2018-09-03T09:31:57.005Z,17.5
2018-09-03T09:36:59.360Z,17.8
2018-09-03T09:42:01.935Z,17.9
2018-09-03T09:47:04.327Z,18
2018-09-03T09:52:06.662Z,18.1
2018-09-03T09:57:09.141Z,18.1
2018-09-03T10:02:11.644Z,18.1
2018-09-03T10:07:14.308Z,18.3
2018-09-03T10:12:16.512Z,18.7
2018-09-03T10:22:21.445Z,19.5
2018-09-03T10:27:23.891Z,19.5
2018-09-03T10:32:26.369Z,19.8
2018-09-03T10:37:28.805Z,20.1
2018-09-03T10:42:31.300Z,20.3
2018-09-03T10:47:33.795Z,20.3
2018-09-03T10:52:36.181Z,20.5
2018-09-03T10:57:38.936Z,20.5
2018-09-03T11:02:41.407Z,20.7
2018-09-03T11:07:43.706Z,20.8
2018-09-03T11:12:46.030Z,20.5
2018-09-03T11:17:48.611Z,20.3
2018-09-03T11:22:50.974Z,20.1
2018-09-03T11:27:53.397Z,20.2
2018-09-03T11:32:55.917Z,20.1
2018-09-03T11:37:58.297Z,20.2
2018-09-03T11:43:01.078Z,20.3
2018-09-03T11:48:03.235Z,20.2
2018-09-03T11:53:05.680Z,20.1
2018-09-03T12:03:11.414Z,20
2018-09-03T12:08:13.055Z,20.1
2018-09-03T12:13:15.547Z,20.2
2018-09-03T12:18:17.971Z,20.8
2018-09-03T12:23:20.432Z,21.7
2018-09-03T12:28:23.107Z,22
2018-09-03T12:33:25.337Z,21.8
2018-09-03T12:38:27.814Z,21.5
2018-09-03T12:43:30.268Z,21.3
2018-09-03T12:48:32.737Z,21.4
2018-09-03T12:53:35.206Z,21.7
2018-09-03T12:58:37.797Z,21.7
2018-09-03T13:03:40.098Z,21.8
2018-09-03T13:08:42.558Z,22
2018-09-03T13:13:45.070Z,22.2
2018-09-03T13:18:47.521Z,21.7
2018-09-03T13:23:49.950Z,21.4
2018-09-03T13:28:52.396Z,21.1
2018-09-03T13:33:54.927Z,20.9
2018-09-03T13:38:57.321Z,20.8
2018-09-03T13:43:59.812Z,20.5
2018-09-03T13:49:02.226Z,20.4
2018-09-03T13:54:04.686Z,20.4
2018-09-03T13:59:07.178Z,20.4
2018-09-03T14:04:09.607Z,20.3
2018-09-03T14:09:12.184Z,20.3
2018-09-03T14:14:15.142Z,20.3
2018-09-03T14:19:17.074Z,20.6
2018-09-03T14:24:19.439Z,20.9
2018-09-03T14:29:22.142Z,21.2
2018-09-03T14:34:24.800Z,21.2
2018-09-03T14:39:26.820Z,21.3
2018-09-03T14:44:29.283Z,21.3
2018-09-03T14:49:31.750Z,21.5
2018-09-03T14:54:34.183Z,21.5
2018-09-03T14:59:36.677Z,21.4
2018-09-03T15:04:39.103Z,21
2018-09-03T15:09:41.571Z,20.8
2018-09-03T15:14:44.080Z,20.5
2018-09-03T15:19:46.639Z,20.5
2018-09-03T15:24:48.945Z,20.6
2018-09-03T15:29:51.664Z,20.6
2018-09-03T15:34:53.895Z,20.6
2018-09-03T15:39:56.323Z,20.8
2018-09-03T15:44:58.813Z,20.9
2018-09-03T15:50:01.325Z,21
2018-09-03T15:55:03.817Z,21
2018-09-03T16:00:06.319Z,21
2018-09-03T16:05:08.647Z,21
2018-09-03T16:10:11.382Z,21
2018-09-03T16:15:13.540Z,21
2018-09-03T16:20:15.986Z,20.9
2018-09-03T16:25:18.670Z,20.8
2018-09-03T16:30:21.020Z,20.7
2018-09-03T16:35:23.380Z,20.6
2018-09-03T16:40:25.850Z,20.5
2018-09-03T16:45:28.285Z,20.3
2018-09-03T16:50:30.738Z,20.2
2018-09-03T16:55:33.219Z,19.9
2018-09-03T17:00:35.668Z,19.8
2018-09-03T17:05:38.104Z,19.8
2018-09-03T17:10:40.677Z,19.5
2018-09-03T17:15:43.026Z,19.2
2018-09-03T17:20:45.498Z,19.1
2018-09-03T17:25:47.944Z,18.7
2018-09-03T17:30:50.405Z,18.6
2018-09-03T17:35:52.863Z,18.4
2018-09-03T17:40:55.341Z,18.1
2018-09-03T17:45:57.847Z,18
2018-09-03T17:51:00.251Z,17.8
2018-09-03T17:56:02.709Z,17.6
2018-09-03T18:01:05.163Z,17.4
2018-09-03T18:06:07.620Z,17.2
2018-09-03T18:11:10.066Z,17.1
2018-09-03T18:16:12.592Z,17
2018-09-03T18:21:14.988Z,16.8
2018-09-03T18:26:17.489Z,16.6
2018-09-03T18:31:19.916Z,16.5
2018-09-03T18:36:22.541Z,16.5
2018-09-03T18:41:24.820Z,16.3
2018-09-03T18:46:27.270Z,16.3
2018-09-03T18:51:29.738Z,16.2
2018-09-03T18:56:32.241Z,16.1
2018-09-03T19:01:34.779Z,16.1
2018-09-03T19:06:37.206Z,16
2018-09-03T19:11:39.752Z,15.9
2018-09-03T19:16:42.038Z,15.8
2018-09-03T19:21:44.513Z,15.6
2018-09-03T19:26:46.947Z,15.5
2018-09-03T19:31:49.414Z,15.4
2018-09-03T19:36:51.862Z,15.3
2018-09-03T19:41:54.334Z,15.1
2018-09-03T19:46:56.998Z,15.2
2018-09-03T19:51:59.326Z,15.2
2018-09-03T19:57:01.704Z,15.2
2018-09-03T20:02:04.142Z,15.3
2018-09-03T20:07:06.685Z,15.4
2018-09-03T20:12:09.073Z,15.5
2018-09-03T20:17:11.643Z,15.5
2018-09-03T20:22:13.999Z,15.5
2018-09-03T20:27:16.679Z,15.6
2018-09-03T20:32:18.906Z,15.7
2018-09-03T20:37:21.533Z,15.7
2018-09-03T20:42:24.454Z,15.8
2018-09-03T20:47:26.266Z,15.8
2018-09-03T20:52:28.810Z,15.8
2018-09-03T20:57:31.188Z,15.8
2018-09-03T21:02:33.796Z,15.8
2018-09-03T21:07:36.205Z,15.8
2018-09-03T21:12:38.568Z,15.9
2018-09-03T21:17:41.091Z,15.9
2018-09-03T21:22:43.496Z,15.9
2018-09-03T21:27:45.980Z,15.9
2018-09-03T21:32:48.412Z,16
2018-09-03T21:37:50.848Z,16
2018-09-03T21:42:53.354Z,16
2018-09-03T21:47:55.764Z,15.9
2018-09-03T21:52:58.413Z,15.9
2018-09-03T21:58:00.684Z,15.8
2018-09-03T22:03:03.144Z,15.7
2018-09-03T22:08:05.611Z,15.7
2018-09-03T22:13:08.099Z,15.7
2018-09-03T22:18:10.533Z,15.7
2018-09-03T22:23:13.013Z,15.6
2018-09-03T22:28:15.618Z,15.5
2018-09-03T22:33:17.942Z,15.4
2018-09-03T22:38:20.345Z,15.4
2018-09-03T22:43:22.937Z,15.3
2018-09-03T22:48:25.261Z,15.2
2018-09-03T22:53:27.717Z,15.1
2018-09-03T22:58:30.200Z,15
2018-09-03T23:03:32.706Z,14.8
2018-09-03T23:08:35.125Z,14.7
2018-09-03T23:13:37.555Z,14.6
2018-09-03T23:18:40.065Z,14.6
2018-09-03T23:23:42.508Z,14.5
2018-09-03T23:28:44.939Z,14.5
2018-09-03T23:33:47.410Z,14.4
2018-09-03T23:38:49.946Z,14.4
2018-09-03T23:43:52.734Z,14.4
2018-09-03T23:48:54.777Z,14.4
2018-09-03T23:53:57.233Z,14.3
2018-09-03T23:58:59.675Z,14.3
